sensor_id;sensor_type;location;lat;lon;timestamp;P1;durP1;ratioP1;P2;durP2;ratioP2
3066;SDS011;1544;48.834;9.194;2023-04-25T00:00:05;1.33;;;1.23;;
3066;SDS011;1544;48.834;9.194;2023-04-25T00:02:46;1.17;;;1.07;;
3066;SDS011;1544;48.834;9.194;2023-04-25T00:05:22;1.30;;;1.20;;
3066;SDS011;1544;48.834;9.194;2023-04-25T00:07:59;1.20;;;1.10;;
3066;SDS011;1544;48.834;9.194;2023-04-25T00:10:35;1.30;;;1.20;;
3066;SDS011;1544;48.834;9.194;2023-04-25T00:13:11;1.30;;;1.20;;
3066;SDS011;1544;48.834;9.194;2023-04-25T00:15:47;1.40;;;1.30;;
3066;SDS011;1544;48.834;9.194;2023-04-25T00:18:23;2.30;;;1.17;;
3066;SDS011;1544;48.834;9.194;2023-04-25T00:20:59;1.77;;;1.20;;
3066;SDS011;1544;48.834;9.194;2023-04-25T00:23:35;1.10;;;1.00;;
3066;SDS011;1544;48.834;9.194;2023-04-25T00:26:11;1.30;;;1.20;;
3066;SDS011;1544;48.834;9.194;2023-04-25T00:28:48;1.50;;;1.00;;
3066;SDS011;1544;48.834;9.194;2023-04-25T00:31:24;1.17;;;1.10;;
3066;SDS011;1544;48.834;9.194;2023-04-25T00:34:00;2.10;;;1.10;;
3066;SDS011;1544;48.834;9.194;2023-04-25T00:36:36;1.03;;;1.00;;
3066;SDS011;1544;48.834;9.194;2023-04-25T00:39:12;1.00;;;1.00;;
3066;SDS011;1544;48.834;9.194;2023-04-25T00:41:48;1.03;;;1.00;;
3066;SDS011;1544;48.834;9.194;2023-04-25T00:44:30;2.00;;;1.10;;
3066;SDS011;1544;48.834;9.194;2023-04-25T00:47:07;2.40;;;0.80;;
3066;SDS011;1544;48.834;9.194;2023-04-25T00:49:43;1.30;;;1.20;;
3066;SDS011;1544;48.834;9.194;2023-04-25T00:52:20;1.53;;;1.20;;
3066;SDS011;1544;48.834;9.194;2023-04-25T00:54:56;1.33;;;1.23;;
3066;SDS011;1544;48.834;9.194;2023-04-25T00:57:32;1.10;;;0.90;;
3066;SDS011;1544;48.834;9.194;2023-04-25T01:00:08;1.00;;;1.00;;
3066;SDS011;1544;48.834;9.194;2023-04-25T01:02:46;1.10;;;1.10;;
3066;SDS011;1544;48.834;9.194;2023-04-25T01:05:23;1.50;;;1.40;;
3066;SDS011;1544;48.834;9.194;2023-04-25T01:07:59;1.30;;;1.20;;
3066;SDS011;1544;48.834;9.194;2023-04-25T01:10:35;2.40;;;1.10;;
3066;SDS011;1544;48.834;9.194;2023-04-25T01:13:12;1.10;;;1.00;;
3066;SDS011;1544;48.834;9.194;2023-04-25T01:15:48;1.10;;;1.00;;
3066;SDS011;1544;48.834;9.194;2023-04-25T01:18:24;1.60;;;1.20;;
3066;SDS011;1544;48.834;9.194;2023-04-25T01:21:09;2.27;;;1.20;;
3066;SDS011;1544;48.834;9.194;2023-04-25T01:23:48;1.30;;;1.20;;
3066;SDS011;1544;48.834;9.194;2023-04-25T01:26:25;1.20;;;1.10;;
3066;SDS011;1544;48.834;9.194;2023-04-25T01:29:03;1.40;;;1.30;;
3066;SDS011;1544;48.834;9.194;2023-04-25T01:31:40;2.20;;;1.30;;
3066;SDS011;1544;48.834;9.194;2023-04-25T01:34:17;1.50;;;1.40;;
3066;SDS011;1544;48.834;9.194;2023-04-25T01:36:53;3.20;;;1.50;;
3066;SDS011;1544;48.834;9.194;2023-04-25T01:39:29;1.77;;;1.67;;
3066;SDS011;1544;48.834;9.194;2023-04-25T01:42:07;2.27;;;1.90;;
3066;SDS011;1544;48.834;9.194;2023-04-25T01:44:44;2.03;;;1.90;;
3066;SDS011;1544;48.834;9.194;2023-04-25T01:47:20;1.40;;;1.30;;
3066;SDS011;1544;48.834;9.194;2023-04-25T01:49:56;2.13;;;1.70;;
3066;SDS011;1544;48.834;9.194;2023-04-25T01:52:32;1.63;;;1.53;;
3066;SDS011;1544;48.834;9.194;2023-04-25T01:55:08;1.50;;;1.40;;
3066;SDS011;1544;48.834;9.194;2023-04-25T01:57:48;2.00;;;1.40;;
3066;SDS011;1544;48.834;9.194;2023-04-25T02:00:26;1.83;;;1.60;;
3066;SDS011;1544;48.834;9.194;2023-04-25T02:03:02;1.50;;;1.40;;
3066;SDS011;1544;48.834;9.194;2023-04-25T02:05:41;1.50;;;1.40;;
3066;SDS011;1544;48.834;9.194;2023-04-25T02:08:20;1.47;;;1.30;;
3066;SDS011;1544;48.834;9.194;2023-04-25T02:10:56;3.40;;;1.47;;
3066;SDS011;1544;48.834;9.194;2023-04-25T02:13:38;1.27;;;1.10;;
3066;SDS011;1544;48.834;9.194;2023-04-25T02:16:46;2.80;;;1.70;;
3066;SDS011;1544;48.834;9.194;2023-04-25T02:19:22;1.50;;;1.40;;
3066;SDS011;1544;48.834;9.194;2023-04-25T02:21:58;2.83;;;1.33;;
3066;SDS011;1544;48.834;9.194;2023-04-25T02:24:34;1.83;;;1.73;;
3066;SDS011;1544;48.834;9.194;2023-04-25T02:27:11;1.60;;;1.50;;
3066;SDS011;1544;48.834;9.194;2023-04-25T02:29:47;1.60;;;1.50;;
3066;SDS011;1544;48.834;9.194;2023-04-25T02:32:23;1.90;;;1.70;;
3066;SDS011;1544;48.834;9.194;2023-04-25T02:34:59;1.57;;;1.47;;
3066;SDS011;1544;48.834;9.194;2023-04-25T02:37:39;1.57;;;1.37;;
3066;SDS011;1544;48.834;9.194;2023-04-25T02:40:15;1.47;;;1.37;;
3066;SDS011;1544;48.834;9.194;2023-04-25T02:42:51;1.97;;;1.40;;
3066;SDS011;1544;48.834;9.194;2023-04-25T02:45:27;1.63;;;1.50;;
3066;SDS011;1544;48.834;9.194;2023-04-25T02:48:04;1.80;;;1.70;;
3066;SDS011;1544;48.834;9.194;2023-04-25T02:50:40;1.80;;;1.70;;
3066;SDS011;1544;48.834;9.194;2023-04-25T02:53:16;1.70;;;1.60;;
3066;SDS011;1544;48.834;9.194;2023-04-25T02:55:56;2.97;;;2.50;;
3066;SDS011;1544;48.834;9.194;2023-04-25T02:58:33;1.90;;;1.80;;
3066;SDS011;1544;48.834;9.194;2023-04-25T03:01:09;1.77;;;1.67;;
3066;SDS011;1544;48.834;9.194;2023-04-25T03:03:45;2.17;;;2.00;;
3066;SDS011;1544;48.834;9.194;2023-04-25T03:06:22;1.90;;;1.80;;
3066;SDS011;1544;48.834;9.194;2023-04-25T03:08:58;1.93;;;1.73;;
3066;SDS011;1544;48.834;9.194;2023-04-25T03:11:34;3.00;;;2.00;;
3066;SDS011;1544;48.834;9.194;2023-04-25T03:14:10;3.47;;;2.00;;
3066;SDS011;1544;48.834;9.194;2023-04-25T03:16:47;2.50;;;2.30;;
3066;SDS011;1544;48.834;9.194;2023-04-25T03:19:25;2.33;;;2.00;;
3066;SDS011;1544;48.834;9.194;2023-04-25T03:22:01;2.13;;;1.93;;
3066;SDS011;1544;48.834;9.194;2023-04-25T03:24:37;2.30;;;2.20;;
3066;SDS011;1544;48.834;9.194;2023-04-25T03:27:13;2.00;;;1.83;;
3066;SDS011;1544;48.834;9.194;2023-04-25T03:29:49;1.83;;;1.73;;
3066;SDS011;1544;48.834;9.194;2023-04-25T03:32:25;1.70;;;1.60;;
3066;SDS011;1544;48.834;9.194;2023-04-25T03:35:01;1.83;;;1.73;;
3066;SDS011;1544;48.834;9.194;2023-04-25T03:37:41;2.13;;;1.93;;
3066;SDS011;1544;48.834;9.194;2023-04-25T03:40:25;3.60;;;1.77;;
3066;SDS011;1544;48.834;9.194;2023-04-25T03:43:24;2.27;;;2.00;;
3066;SDS011;1544;48.834;9.194;2023-04-25T03:46:06;1.90;;;1.80;;
3066;SDS011;1544;48.834;9.194;2023-04-25T03:48:43;2.50;;;2.30;;
3066;SDS011;1544;48.834;9.194;2023-04-25T03:51:25;2.00;;;1.90;;
3066;SDS011;1544;48.834;9.194;2023-04-25T03:54:01;2.13;;;1.90;;
3066;SDS011;1544;48.834;9.194;2023-04-25T03:57:10;1.70;;;1.60;;
3066;SDS011;1544;48.834;9.194;2023-04-25T03:59:47;2.57;;;1.83;;
3066;SDS011;1544;48.834;9.194;2023-04-25T04:02:24;1.87;;;1.60;;
3066;SDS011;1544;48.834;9.194;2023-04-25T04:05:01;1.90;;;1.70;;
3066;SDS011;1544;48.834;9.194;2023-04-25T04:07:39;1.83;;;1.73;;
3066;SDS011;1544;48.834;9.194;2023-04-25T04:10:19;1.83;;;1.73;;
3066;SDS011;1544;48.834;9.194;2023-04-25T04:12:55;1.80;;;1.70;;
3066;SDS011;1544;48.834;9.194;2023-04-25T04:15:32;3.43;;;1.90;;
3066;SDS011;1544;48.834;9.194;2023-04-25T04:18:09;2.93;;;2.40;;
3066;SDS011;1544;48.834;9.194;2023-04-25T04:20:46;2.70;;;1.97;;
3066;SDS011;1544;48.834;9.194;2023-04-25T04:23:22;3.50;;;2.00;;
3066;SDS011;1544;48.834;9.194;2023-04-25T04:25:59;1.87;;;1.73;;
3066;SDS011;1544;48.834;9.194;2023-04-25T04:28:54;1.80;;;1.70;;
3066;SDS011;1544;48.834;9.194;2023-04-25T04:31:40;2.10;;;1.70;;
3066;SDS011;1544;48.834;9.194;2023-04-25T04:34:17;2.40;;;2.20;;
3066;SDS011;1544;48.834;9.194;2023-04-25T04:36:53;3.33;;;1.90;;
3066;SDS011;1544;48.834;9.194;2023-04-25T04:39:30;2.87;;;2.10;;
3066;SDS011;1544;48.834;9.194;2023-04-25T04:42:15;2.40;;;2.20;;
3066;SDS011;1544;48.834;9.194;2023-04-25T04:45:02;2.70;;;2.40;;
3066;SDS011;1544;48.834;9.194;2023-04-25T04:47:53;2.10;;;1.90;;
3066;SDS011;1544;48.834;9.194;2023-04-25T04:51:02;2.07;;;1.97;;
3066;SDS011;1544;48.834;9.194;2023-04-25T04:53:53;2.73;;;2.63;;
3066;SDS011;1544;48.834;9.194;2023-04-25T04:56:52;2.83;;;2.63;;
3066;SDS011;1544;48.834;9.194;2023-04-25T04:59:59;2.47;;;2.37;;
3066;SDS011;1544;48.834;9.194;2023-04-25T05:02:55;2.33;;;2.23;;
3066;SDS011;1544;48.834;9.194;2023-04-25T05:05:38;7.73;;;2.70;;
3066;SDS011;1544;48.834;9.194;2023-04-25T05:08:18;2.40;;;2.20;;
3066;SDS011;1544;48.834;9.194;2023-04-25T05:11:23;2.87;;;2.67;;
3066;SDS011;1544;48.834;9.194;2023-04-25T05:14:18;2.87;;;2.73;;
3066;SDS011;1544;48.834;9.194;2023-04-25T05:17:13;3.30;;;3.00;;
3066;SDS011;1544;48.834;9.194;2023-04-25T05:20:08;3.27;;;2.80;;
3066;SDS011;1544;48.834;9.194;2023-04-25T05:23:04;2.67;;;2.47;;
3066;SDS011;1544;48.834;9.194;2023-04-25T05:26:02;3.10;;;2.60;;
3066;SDS011;1544;48.834;9.194;2023-04-25T05:28:47;3.00;;;2.80;;
3066;SDS011;1544;48.834;9.194;2023-04-25T05:31:42;3.10;;;2.90;;
3066;SDS011;1544;48.834;9.194;2023-04-25T05:34:21;3.30;;;2.80;;
3066;SDS011;1544;48.834;9.194;2023-04-25T05:37:02;2.93;;;2.70;;
3066;SDS011;1544;48.834;9.194;2023-04-25T05:39:40;3.57;;;3.30;;
3066;SDS011;1544;48.834;9.194;2023-04-25T05:42:22;3.17;;;2.90;;
3066;SDS011;1544;48.834;9.194;2023-04-25T05:45:12;3.60;;;3.30;;
3066;SDS011;1544;48.834;9.194;2023-04-25T05:48:07;3.03;;;2.83;;
3066;SDS011;1544;48.834;9.194;2023-04-25T05:51:06;4.43;;;4.03;;
3066;SDS011;1544;48.834;9.194;2023-04-25T05:54:07;3.27;;;3.07;;
3066;SDS011;1544;48.834;9.194;2023-04-25T05:56:44;6.33;;;3.20;;
3066;SDS011;1544;48.834;9.194;2023-04-25T05:59:20;5.20;;;3.13;;
3066;SDS011;1544;48.834;9.194;2023-04-25T06:01:59;3.50;;;2.80;;
3066;SDS011;1544;48.834;9.194;2023-04-25T06:04:37;3.47;;;2.70;;
3066;SDS011;1544;48.834;9.194;2023-04-25T06:07:15;4.13;;;3.80;;
3066;SDS011;1544;48.834;9.194;2023-04-25T06:09:51;3.10;;;2.90;;
3066;SDS011;1544;48.834;9.194;2023-04-25T06:12:28;3.07;;;2.83;;
3066;SDS011;1544;48.834;9.194;2023-04-25T06:15:07;2.83;;;2.63;;
3066;SDS011;1544;48.834;9.194;2023-04-25T06:18:01;3.17;;;2.30;;
3066;SDS011;1544;48.834;9.194;2023-04-25T06:20:39;2.90;;;2.70;;
3066;SDS011;1544;48.834;9.194;2023-04-25T06:23:15;2.40;;;2.20;;
3066;SDS011;1544;48.834;9.194;2023-04-25T06:26:00;3.43;;;3.23;;
3066;SDS011;1544;48.834;9.194;2023-04-25T06:28:38;2.87;;;2.67;;
3066;SDS011;1544;48.834;9.194;2023-04-25T06:31:16;4.80;;;2.73;;
3066;SDS011;1544;48.834;9.194;2023-04-25T06:33:56;5.37;;;3.63;;
3066;SDS011;1544;48.834;9.194;2023-04-25T06:36:33;3.30;;;3.10;;
3066;SDS011;1544;48.834;9.194;2023-04-25T06:39:14;2.50;;;2.30;;
3066;SDS011;1544;48.834;9.194;2023-04-25T06:41:51;2.70;;;2.30;;
3066;SDS011;1544;48.834;9.194;2023-04-25T06:44:45;3.03;;;2.80;;
3066;SDS011;1544;48.834;9.194;2023-04-25T06:47:23;2.90;;;2.70;;
3066;SDS011;1544;48.834;9.194;2023-04-25T06:49:59;2.43;;;2.23;;
3066;SDS011;1544;48.834;9.194;2023-04-25T06:52:36;2.87;;;2.60;;
3066;SDS011;1544;48.834;9.194;2023-04-25T06:55:14;2.90;;;2.70;;
3066;SDS011;1544;48.834;9.194;2023-04-25T06:58:20;3.07;;;2.90;;
3066;SDS011;1544;48.834;9.194;2023-04-25T07:00:58;3.23;;;2.93;;
3066;SDS011;1544;48.834;9.194;2023-04-25T07:03:35;3.73;;;2.90;;
3066;SDS011;1544;48.834;9.194;2023-04-25T07:06:19;2.47;;;2.20;;
3066;SDS011;1544;48.834;9.194;2023-04-25T07:08:56;3.20;;;2.90;;
3066;SDS011;1544;48.834;9.194;2023-04-25T07:11:32;3.43;;;3.13;;
3066;SDS011;1544;48.834;9.194;2023-04-25T07:14:08;3.10;;;2.90;;
3066;SDS011;1544;48.834;9.194;2023-04-25T07:16:44;2.97;;;2.77;;
3066;SDS011;1544;48.834;9.194;2023-04-25T07:19:21;2.90;;;2.70;;
3066;SDS011;1544;48.834;9.194;2023-04-25T07:22:00;2.70;;;2.50;;
3066;SDS011;1544;48.834;9.194;2023-04-25T07:24:39;3.40;;;2.90;;
3066;SDS011;1544;48.834;9.194;2023-04-25T07:27:18;2.47;;;2.30;;
3066;SDS011;1544;48.834;9.194;2023-04-25T07:30:09;3.70;;;3.40;;
3066;SDS011;1544;48.834;9.194;2023-04-25T07:32:47;2.87;;;2.70;;
3066;SDS011;1544;48.834;9.194;2023-04-25T07:35:24;2.83;;;2.63;;
3066;SDS011;1544;48.834;9.194;2023-04-25T07:38:02;5.47;;;4.30;;
3066;SDS011;1544;48.834;9.194;2023-04-25T07:40:40;3.70;;;3.43;;
3066;SDS011;1544;48.834;9.194;2023-04-25T07:43:18;4.53;;;4.20;;
3066;SDS011;1544;48.834;9.194;2023-04-25T07:46:01;3.40;;;3.20;;
3066;SDS011;1544;48.834;9.194;2023-04-25T07:48:41;4.40;;;4.10;;
3066;SDS011;1544;48.834;9.194;2023-04-25T07:51:17;5.00;;;3.77;;
3066;SDS011;1544;48.834;9.194;2023-04-25T07:53:55;6.43;;;4.00;;
3066;SDS011;1544;48.834;9.194;2023-04-25T07:56:33;4.57;;;4.17;;
3066;SDS011;1544;48.834;9.194;2023-04-25T07:59:26;4.00;;;3.57;;
3066;SDS011;1544;48.834;9.194;2023-04-25T08:02:06;4.40;;;4.07;;
3066;SDS011;1544;48.834;9.194;2023-04-25T08:04:42;4.43;;;4.13;;
3066;SDS011;1544;48.834;9.194;2023-04-25T08:07:20;3.77;;;3.47;;
3066;SDS011;1544;48.834;9.194;2023-04-25T08:10:01;3.70;;;2.70;;
3066;SDS011;1544;48.834;9.194;2023-04-25T08:12:41;4.80;;;4.03;;
3066;SDS011;1544;48.834;9.194;2023-04-25T08:15:17;5.27;;;3.67;;
3066;SDS011;1544;48.834;9.194;2023-04-25T08:17:53;3.93;;;3.50;;
3066;SDS011;1544;48.834;9.194;2023-04-25T08:20:31;4.40;;;4.10;;
3066;SDS011;1544;48.834;9.194;2023-04-25T08:23:09;4.07;;;3.73;;
3066;SDS011;1544;48.834;9.194;2023-04-25T08:26:00;3.30;;;3.10;;
3066;SDS011;1544;48.834;9.194;2023-04-25T08:28:37;4.23;;;3.47;;
3066;SDS011;1544;48.834;9.194;2023-04-25T08:31:16;4.00;;;3.67;;
3066;SDS011;1544;48.834;9.194;2023-04-25T08:34:02;2.90;;;2.60;;
3066;SDS011;1544;48.834;9.194;2023-04-25T08:36:50;3.90;;;3.60;;
3066;SDS011;1544;48.834;9.194;2023-04-25T08:39:32;3.40;;;3.07;;
3066;SDS011;1544;48.834;9.194;2023-04-25T08:42:34;3.33;;;3.03;;
3066;SDS011;1544;48.834;9.194;2023-04-25T08:45:12;4.70;;;4.30;;
3066;SDS011;1544;48.834;9.194;2023-04-25T08:47:51;4.50;;;4.10;;
3066;SDS011;1544;48.834;9.194;2023-04-25T08:50:29;3.67;;;3.40;;
3066;SDS011;1544;48.834;9.194;2023-04-25T08:53:06;3.47;;;3.27;;
3066;SDS011;1544;48.834;9.194;2023-04-25T08:55:45;3.97;;;3.67;;
3066;SDS011;1544;48.834;9.194;2023-04-25T08:58:23;4.30;;;3.93;;
3066;SDS011;1544;48.834;9.194;2023-04-25T09:00:59;4.33;;;4.03;;
3066;SDS011;1544;48.834;9.194;2023-04-25T09:03:39;4.73;;;4.33;;
3066;SDS011;1544;48.834;9.194;2023-04-25T09:06:16;4.40;;;4.10;;
3066;SDS011;1544;48.834;9.194;2023-04-25T09:08:53;4.03;;;3.70;;
3066;SDS011;1544;48.834;9.194;2023-04-25T09:11:31;6.60;;;4.60;;
3066;SDS011;1544;48.834;9.194;2023-04-25T09:14:14;6.13;;;5.23;;
3066;SDS011;1544;48.834;9.194;2023-04-25T09:17:22;4.70;;;4.40;;
3066;SDS011;1544;48.834;9.194;2023-04-25T09:20:14;4.40;;;4.00;;
3066;SDS011;1544;48.834;9.194;2023-04-25T09:23:14;6.40;;;5.80;;
3066;SDS011;1544;48.834;9.194;2023-04-25T09:25:48;5.93;;;5.30;;
3066;SDS011;1544;48.834;9.194;2023-04-25T09:28:27;6.00;;;5.50;;
3066;SDS011;1544;48.834;9.194;2023-04-25T09:31:09;5.63;;;5.20;;
3066;SDS011;1544;48.834;9.194;2023-04-25T09:33:59;4.27;;;4.00;;
3066;SDS011;1544;48.834;9.194;2023-04-25T09:36:50;4.20;;;3.90;;
3066;SDS011;1544;48.834;9.194;2023-04-25T09:39:44;4.50;;;4.10;;
3066;SDS011;1544;48.834;9.194;2023-04-25T09:42:25;4.20;;;3.90;;
3066;SDS011;1544;48.834;9.194;2023-04-25T09:45:02;4.40;;;4.10;;
3066;SDS011;1544;48.834;9.194;2023-04-25T09:47:45;4.00;;;3.60;;
3066;SDS011;1544;48.834;9.194;2023-04-25T09:50:27;3.60;;;3.40;;
3066;SDS011;1544;48.834;9.194;2023-04-25T09:53:14;3.87;;;3.67;;
3066;SDS011;1544;48.834;9.194;2023-04-25T09:56:08;5.20;;;4.73;;
3066;SDS011;1544;48.834;9.194;2023-04-25T09:58:45;5.40;;;4.60;;
3066;SDS011;1544;48.834;9.194;2023-04-25T10:01:25;4.87;;;4.40;;
3066;SDS011;1544;48.834;9.194;2023-04-25T10:04:15;4.20;;;3.90;;
3066;SDS011;1544;48.834;9.194;2023-04-25T10:07:06;5.03;;;3.77;;
3066;SDS011;1544;48.834;9.194;2023-04-25T10:09:44;4.23;;;3.83;;
3066;SDS011;1544;48.834;9.194;2023-04-25T10:12:26;4.10;;;3.80;;
3066;SDS011;1544;48.834;9.194;2023-04-25T10:15:04;4.33;;;4.03;;
3066;SDS011;1544;48.834;9.194;2023-04-25T10:17:41;5.90;;;5.30;;
3066;SDS011;1544;48.834;9.194;2023-04-25T10:20:17;6.50;;;5.20;;
3066;SDS011;1544;48.834;9.194;2023-04-25T10:22:58;5.80;;;5.30;;
3066;SDS011;1544;48.834;9.194;2023-04-25T10:25:50;5.97;;;4.53;;
3066;SDS011;1544;48.834;9.194;2023-04-25T10:28:28;4.93;;;4.53;;
3066;SDS011;1544;48.834;9.194;2023-04-25T10:31:07;4.37;;;3.50;;
3066;SDS011;1544;48.834;9.194;2023-04-25T10:33:43;3.37;;;2.97;;
3066;SDS011;1544;48.834;9.194;2023-04-25T10:36:21;2.30;;;2.10;;
3066;SDS011;1544;48.834;9.194;2023-04-25T10:39:04;3.20;;;2.70;;
3066;SDS011;1544;48.834;9.194;2023-04-25T10:41:55;4.57;;;4.10;;
3066;SDS011;1544;48.834;9.194;2023-04-25T10:44:33;6.83;;;4.90;;
3066;SDS011;1544;48.834;9.194;2023-04-25T10:47:09;7.97;;;4.73;;
3066;SDS011;1544;48.834;9.194;2023-04-25T10:49:46;6.10;;;5.50;;
3066;SDS011;1544;48.834;9.194;2023-04-25T10:52:28;6.80;;;5.70;;
3066;SDS011;1544;48.834;9.194;2023-04-25T10:55:05;5.00;;;4.60;;
3066;SDS011;1544;48.834;9.194;2023-04-25T10:57:42;4.97;;;4.50;;
3066;SDS011;1544;48.834;9.194;2023-04-25T11:00:22;5.37;;;4.87;;
3066;SDS011;1544;48.834;9.194;2023-04-25T11:03:21;4.00;;;3.70;;
3066;SDS011;1544;48.834;9.194;2023-04-25T11:05:59;3.20;;;2.90;;
3066;SDS011;1544;48.834;9.194;2023-04-25T11:08:48;4.40;;;3.63;;
3066;SDS011;1544;48.834;9.194;2023-04-25T11:11:26;4.10;;;3.80;;
3066;SDS011;1544;48.834;9.194;2023-04-25T11:14:06;4.20;;;3.40;;
3066;SDS011;1544;48.834;9.194;2023-04-25T11:16:42;4.47;;;3.97;;
3066;SDS011;1544;48.834;9.194;2023-04-25T11:19:19;3.33;;;3.13;;
3066;SDS011;1544;48.834;9.194;2023-04-25T11:21:56;4.13;;;3.73;;
3066;SDS011;1544;48.834;9.194;2023-04-25T11:24:33;3.30;;;3.03;;
3066;SDS011;1544;48.834;9.194;2023-04-25T11:27:11;4.37;;;3.53;;
3066;SDS011;1544;48.834;9.194;2023-04-25T11:29:48;3.07;;;2.87;;
3066;SDS011;1544;48.834;9.194;2023-04-25T11:32:24;2.80;;;2.60;;
3066;SDS011;1544;48.834;9.194;2023-04-25T11:35:02;2.67;;;2.47;;
3066;SDS011;1544;48.834;9.194;2023-04-25T11:37:38;2.80;;;2.43;;
3066;SDS011;1544;48.834;9.194;2023-04-25T11:40:15;2.43;;;2.33;;
3066;SDS011;1544;48.834;9.194;2023-04-25T11:42:52;3.10;;;2.80;;
3066;SDS011;1544;48.834;9.194;2023-04-25T11:45:29;2.37;;;2.23;;
3066;SDS011;1544;48.834;9.194;2023-04-25T11:48:08;2.53;;;2.10;;
3066;SDS011;1544;48.834;9.194;2023-04-25T11:50:45;2.37;;;2.23;;
3066;SDS011;1544;48.834;9.194;2023-04-25T11:53:21;1.90;;;1.80;;
3066;SDS011;1544;48.834;9.194;2023-04-25T11:55:56;2.90;;;2.70;;
3066;SDS011;1544;48.834;9.194;2023-04-25T11:58:33;2.43;;;2.30;;
3066;SDS011;1544;48.834;9.194;2023-04-25T12:01:34;3.37;;;3.07;;
3066;SDS011;1544;48.834;9.194;2023-04-25T12:04:13;4.73;;;3.70;;
3066;SDS011;1544;48.834;9.194;2023-04-25T12:06:55;4.10;;;3.10;;
3066;SDS011;1544;48.834;9.194;2023-04-25T12:09:33;3.33;;;3.13;;
3066;SDS011;1544;48.834;9.194;2023-04-25T12:12:11;4.63;;;3.30;;
3066;SDS011;1544;48.834;9.194;2023-04-25T12:14:47;3.23;;;3.03;;
3066;SDS011;1544;48.834;9.194;2023-04-25T12:17:25;3.23;;;2.93;;
3066;SDS011;1544;48.834;9.194;2023-04-25T12:20:10;4.63;;;4.10;;
3066;SDS011;1544;48.834;9.194;2023-04-25T12:22:51;3.40;;;3.20;;
3066;SDS011;1544;48.834;9.194;2023-04-25T12:25:35;3.40;;;3.10;;
3066;SDS011;1544;48.834;9.194;2023-04-25T12:28:21;4.40;;;4.00;;
3066;SDS011;1544;48.834;9.194;2023-04-25T12:31:06;3.57;;;3.33;;
3066;SDS011;1544;48.834;9.194;2023-04-25T12:33:44;3.93;;;2.83;;
3066;SDS011;1544;48.834;9.194;2023-04-25T12:36:23;4.63;;;4.20;;
3066;SDS011;1544;48.834;9.194;2023-04-25T12:38:59;6.33;;;5.37;;
3066;SDS011;1544;48.834;9.194;2023-04-25T12:41:39;3.90;;;3.60;;
3066;SDS011;1544;48.834;9.194;2023-04-25T12:44:16;3.80;;;3.50;;
3066;SDS011;1544;48.834;9.194;2023-04-25T12:46:52;3.90;;;3.60;;
3066;SDS011;1544;48.834;9.194;2023-04-25T12:49:31;3.70;;;3.50;;
3066;SDS011;1544;48.834;9.194;2023-04-25T12:52:08;3.93;;;3.50;;
3066;SDS011;1544;48.834;9.194;2023-04-25T12:54:44;5.73;;;4.17;;
3066;SDS011;1544;48.834;9.194;2023-04-25T12:57:20;4.63;;;3.93;;
3066;SDS011;1544;48.834;9.194;2023-04-25T12:59:56;4.10;;;3.70;;
3066;SDS011;1544;48.834;9.194;2023-04-25T13:02:33;5.10;;;4.60;;
3066;SDS011;1544;48.834;9.194;2023-04-25T13:05:10;5.50;;;5.00;;
3066;SDS011;1544;48.834;9.194;2023-04-25T13:07:47;5.33;;;4.83;;
3066;SDS011;1544;48.834;9.194;2023-04-25T13:10:23;3.90;;;3.70;;
3066;SDS011;1544;48.834;9.194;2023-04-25T13:12:59;4.83;;;4.30;;
3066;SDS011;1544;48.834;9.194;2023-04-25T13:15:36;4.13;;;3.83;;
3066;SDS011;1544;48.834;9.194;2023-04-25T13:18:12;5.60;;;5.00;;
3066;SDS011;1544;48.834;9.194;2023-04-25T13:20:48;4.83;;;4.43;;
3066;SDS011;1544;48.834;9.194;2023-04-25T13:23:25;4.80;;;4.10;;
3066;SDS011;1544;48.834;9.194;2023-04-25T13:26:02;6.00;;;5.37;;
3066;SDS011;1544;48.834;9.194;2023-04-25T13:28:40;5.43;;;5.03;;
3066;SDS011;1544;48.834;9.194;2023-04-25T13:31:19;7.00;;;6.30;;
3066;SDS011;1544;48.834;9.194;2023-04-25T13:33:55;6.67;;;6.07;;
3066;SDS011;1544;48.834;9.194;2023-04-25T13:36:31;7.20;;;6.60;;
3066;SDS011;1544;48.834;9.194;2023-04-25T13:39:07;7.13;;;6.43;;
3066;SDS011;1544;48.834;9.194;2023-04-25T13:41:43;8.90;;;8.00;;
3066;SDS011;1544;48.834;9.194;2023-04-25T13:44:20;7.80;;;6.80;;
3066;SDS011;1544;48.834;9.194;2023-04-25T13:46:57;9.53;;;7.37;;
3066;SDS011;1544;48.834;9.194;2023-04-25T13:49:33;8.77;;;8.03;;
3066;SDS011;1544;48.834;9.194;2023-04-25T13:52:09;8.87;;;7.30;;
3066;SDS011;1544;48.834;9.194;2023-04-25T13:54:45;9.13;;;7.83;;
3066;SDS011;1544;48.834;9.194;2023-04-25T13:57:22;8.27;;;7.57;;
3066;SDS011;1544;48.834;9.194;2023-04-25T13:59:59;8.30;;;7.37;;
3066;SDS011;1544;48.834;9.194;2023-04-25T14:02:40;8.47;;;7.67;;
3066;SDS011;1544;48.834;9.194;2023-04-25T14:05:16;7.20;;;6.53;;
3066;SDS011;1544;48.834;9.194;2023-04-25T14:07:52;6.33;;;5.80;;
3066;SDS011;1544;48.834;9.194;2023-04-25T14:10:28;6.97;;;5.80;;
3066;SDS011;1544;48.834;9.194;2023-04-25T14:13:04;7.00;;;6.07;;
3066;SDS011;1544;48.834;9.194;2023-04-25T14:15:43;8.00;;;6.00;;
3066;SDS011;1544;48.834;9.194;2023-04-25T14:18:19;4.47;;;4.17;;
3066;SDS011;1544;48.834;9.194;2023-04-25T14:20:55;5.57;;;5.17;;
3066;SDS011;1544;48.834;9.194;2023-04-25T14:23:33;5.70;;;5.20;;
3066;SDS011;1544;48.834;9.194;2023-04-25T14:26:11;7.00;;;5.83;;
3066;SDS011;1544;48.834;9.194;2023-04-25T14:28:48;5.00;;;4.70;;
3066;SDS011;1544;48.834;9.194;2023-04-25T14:31:24;5.37;;;4.97;;
3066;SDS011;1544;48.834;9.194;2023-04-25T14:34:02;4.43;;;4.03;;
3066;SDS011;1544;48.834;9.194;2023-04-25T14:36:38;5.10;;;4.70;;
3066;SDS011;1544;48.834;9.194;2023-04-25T14:39:15;4.13;;;3.63;;
3066;SDS011;1544;48.834;9.194;2023-04-25T14:41:53;4.33;;;4.03;;
3066;SDS011;1544;48.834;9.194;2023-04-25T14:44:29;5.57;;;4.20;;
3066;SDS011;1544;48.834;9.194;2023-04-25T14:47:05;4.30;;;3.90;;
3066;SDS011;1544;48.834;9.194;2023-04-25T14:49:42;4.57;;;4.17;;
3066;SDS011;1544;48.834;9.194;2023-04-25T14:52:19;4.30;;;3.90;;
3066;SDS011;1544;48.834;9.194;2023-04-25T14:54:59;5.17;;;4.67;;
3066;SDS011;1544;48.834;9.194;2023-04-25T14:57:39;5.60;;;5.20;;
3066;SDS011;1544;48.834;9.194;2023-04-25T15:00:16;4.70;;;4.30;;
3066;SDS011;1544;48.834;9.194;2023-04-25T15:02:53;4.13;;;3.80;;
3066;SDS011;1544;48.834;9.194;2023-04-25T15:05:31;4.97;;;4.57;;
3066;SDS011;1544;48.834;9.194;2023-04-25T15:08:08;5.47;;;4.40;;
3066;SDS011;1544;48.834;9.194;2023-04-25T15:10:46;4.70;;;4.27;;
3066;SDS011;1544;48.834;9.194;2023-04-25T15:13:23;4.20;;;3.80;;
3066;SDS011;1544;48.834;9.194;2023-04-25T15:15:59;4.33;;;3.70;;
3066;SDS011;1544;48.834;9.194;2023-04-25T15:18:36;3.73;;;3.40;;
3066;SDS011;1544;48.834;9.194;2023-04-25T15:21:12;4.07;;;2.93;;
3066;SDS011;1544;48.834;9.194;2023-04-25T15:23:47;3.43;;;3.10;;
3066;SDS011;1544;48.834;9.194;2023-04-25T15:26:24;3.80;;;3.50;;
3066;SDS011;1544;48.834;9.194;2023-04-25T15:29:00;3.30;;;3.10;;
3066;SDS011;1544;48.834;9.194;2023-04-25T15:31:36;4.40;;;4.00;;
3066;SDS011;1544;48.834;9.194;2023-04-25T15:34:12;4.27;;;3.90;;
3066;SDS011;1544;48.834;9.194;2023-04-25T15:36:48;4.40;;;4.10;;
3066;SDS011;1544;48.834;9.194;2023-04-25T15:39:24;4.50;;;3.50;;
3066;SDS011;1544;48.834;9.194;2023-04-25T15:42:00;3.63;;;3.43;;
3066;SDS011;1544;48.834;9.194;2023-04-25T15:44:37;3.50;;;3.20;;
3066;SDS011;1544;48.834;9.194;2023-04-25T15:47:13;4.70;;;3.93;;
3066;SDS011;1544;48.834;9.194;2023-04-25T15:49:50;5.20;;;4.40;;
3066;SDS011;1544;48.834;9.194;2023-04-25T15:52:26;5.00;;;4.60;;
3066;SDS011;1544;48.834;9.194;2023-04-25T15:55:03;7.90;;;4.43;;
3066;SDS011;1544;48.834;9.194;2023-04-25T15:57:41;5.40;;;4.90;;
3066;SDS011;1544;48.834;9.194;2023-04-25T16:00:17;4.80;;;4.17;;
3066;SDS011;1544;48.834;9.194;2023-04-25T16:02:57;3.80;;;3.50;;
3066;SDS011;1544;48.834;9.194;2023-04-25T16:05:33;4.30;;;3.90;;
3066;SDS011;1544;48.834;9.194;2023-04-25T16:08:10;6.03;;;4.03;;
3066;SDS011;1544;48.834;9.194;2023-04-25T16:10:46;4.00;;;3.70;;
3066;SDS011;1544;48.834;9.194;2023-04-25T16:13:22;5.13;;;4.60;;
3066;SDS011;1544;48.834;9.194;2023-04-25T16:16:00;4.57;;;4.17;;
3066;SDS011;1544;48.834;9.194;2023-04-25T16:18:36;3.93;;;3.63;;
3066;SDS011;1544;48.834;9.194;2023-04-25T16:21:14;4.37;;;3.97;;
3066;SDS011;1544;48.834;9.194;2023-04-25T16:23:51;4.20;;;3.90;;
3066;SDS011;1544;48.834;9.194;2023-04-25T16:26:27;4.87;;;4.47;;
3066;SDS011;1544;48.834;9.194;2023-04-25T16:29:04;4.07;;;3.87;;
3066;SDS011;1544;48.834;9.194;2023-04-25T16:31:42;5.20;;;4.47;;